Time;durP1;ratioP1;P1;durP2;ratioP2;P2;SDS_P1;SDS_P2;PMS_P1;PMS_P2;Temp;Humidity;BMP_temperature;BMP_pressure;BME280_temperature;BME280_humidity;BME280_pressure;Samples;Min_cycle;Max_cycle;Signal;HPM_P1;HPM_P2
2023/09/19 00:01:09;;;;;;;2.38;0.90;;;16.10;99.90;;;;;;5012111;28;20467;-56
2023/09/19 00:03:38;;;;;;;5.70;1.48;;;16.10;99.90;;;;;;5023863;28;20048;-56
2023/09/19 00:06:04;;;;;;;5.28;1.50;;;16.10;99.90;;;;;;5013085;28;20048;-56
2023/09/19 00:08:30;;;;;;;2.83;1.15;;;16.10;99.90;;;;;;5034191;28;20511;-57
2023/09/19 00:10:56;;;;;;;3.45;1.10;;;16.10;99.90;;;;;;5014323;28;20102;-56
2023/09/19 00:13:22;;;;;;;1.00;0.90;;;16.10;99.90;;;;;;5021533;28;20116;-57
2023/09/19 00:15:48;;;;;;;2.13;1.20;;;16.10;99.90;;;;;;5016141;28;20045;-56
2023/09/19 00:18:15;;;;;;;2.63;1.23;;;16.10;99.90;;;;;;5012191;28;20372;-56
2023/09/19 00:20:42;;;;;;;1.65;1.30;;;16.10;99.90;;;;;;5030957;28;20518;-56
2023/09/19 00:23:08;;;;;;;1.52;1.25;;;16.00;99.90;;;;;;5014545;28;20472;-56
2023/09/19 00:25:38;;;;;;;3.08;1.10;;;16.00;99.90;;;;;;5016571;28;20018;-58
2023/09/19 00:28:07;;;;;;;3.63;1.70;;;16.00;99.90;;;;;;5016601;28;20025;-56
2023/09/19 00:30:33;;;;;;;3.63;1.50;;;16.00;99.90;;;;;;5031937;28;20037;-57
2023/09/19 00:33:00;;;;;;;1.65;1.33;;;16.00;99.90;;;;;;5014607;28;20542;-57
2023/09/19 00:35:26;;;;;;;2.65;1.48;;;16.00;99.90;;;;;;5015128;28;20036;-57
2023/09/19 00:37:51;;;;;;;6.03;2.03;;;16.00;99.90;;;;;;5014049;28;20038;-57
2023/09/19 00:40:17;;;;;;;5.95;1.70;;;15.90;99.90;;;;;;5015660;28;20030;-57
2023/09/19 00:42:47;;;;;;;3.50;1.63;;;16.00;99.90;;;;;;5013414;28;20079;-57
2023/09/19 00:45:15;;;;;;;7.97;1.67;;;16.00;99.90;;;;;;5019311;28;20113;-57
2023/09/19 00:47:43;;;;;;;4.88;1.25;;;16.00;99.90;;;;;;5013429;28;20033;-56
2023/09/19 00:50:14;;;;;;;4.18;1.42;;;16.00;99.90;;;;;;5015825;28;21477;-56
2023/09/19 00:52:42;;;;;;;9.63;1.42;;;16.00;99.90;;;;;;5012929;28;20125;-57
2023/09/19 00:55:10;;;;;;;3.20;1.52;;;16.00;99.90;;;;;;5027983;28;20253;-57
2023/09/19 00:57:38;;;;;;;2.95;1.50;;;16.00;99.90;;;;;;5023534;28;20510;-56
2023/09/19 01:00:08;;;;;;;5.55;1.58;;;16.00;99.90;;;;;;5024276;28;20052;-56
2023/09/19 01:02:35;;;;;;;2.78;1.50;;;16.00;99.90;;;;;;5017531;28;20471;-56
2023/09/19 01:05:01;;;;;;;6.35;1.70;;;16.00;99.90;;;;;;5015637;28;20483;-56
2023/09/19 01:07:30;;;;;;;3.10;2.00;;;16.00;99.90;;;;;;5018879;28;20092;-56
2023/09/19 01:09:58;;;;;;;4.75;1.92;;;16.00;99.90;;;;;;5015906;28;20029;-56
2023/09/19 01:12:36;;;;;;;3.40;1.52;;;16.00;99.90;;;;;;5013215;28;20076;-56
2023/09/19 01:15:11;;;;;;;3.60;1.63;;;15.90;99.90;;;;;;5032987;28;20584;-56
2023/09/19 01:18:21;;;;;;;3.28;1.67;;;15.90;99.90;;;;;;5019873;28;20022;-56
2023/09/19 01:20:57;;;;;;;3.53;2.05;;;16.00;99.90;;;;;;5019589;28;20283;-56
2023/09/19 01:23:47;;;;;;;2.13;1.42;;;16.00;99.90;;;;;;5012171;28;20378;-56
2023/09/19 01:26:34;;;;;;;4.70;1.90;;;16.00;99.90;;;;;;5012188;28;20018;-56
2023/09/19 01:29:29;;;;;;;5.28;1.95;;;15.90;99.90;;;;;;5021500;28;20037;-56
2023/09/19 01:32:01;;;;;;;4.47;1.83;;;15.90;99.90;;;;;;5020925;28;20014;-56
2023/09/19 01:34:26;;;;;;;2.25;1.55;;;15.90;99.90;;;;;;5013203;28;20108;-56
2023/09/19 01:36:52;;;;;;;2.40;1.60;;;15.90;99.90;;;;;;5018265;28;20101;-56
2023/09/19 01:39:18;;;;;;;4.20;1.77;;;15.90;99.90;;;;;;5013133;28;20099;-56
2023/09/19 01:42:26;;;;;;;2.60;1.70;;;15.90;99.90;;;;;;5014316;28;20057;-56
2023/09/19 01:45:18;;;;;;;5.05;2.20;;;15.90;99.90;;;;;;5013474;28;20118;-56
2023/09/19 01:47:56;;;;;;;4.32;1.98;;;15.90;99.90;;;;;;5015610;28;20029;-56
2023/09/19 01:50:41;;;;;;;7.18;2.20;;;15.90;99.90;;;;;;5018713;28;20054;-57
2023/09/19 01:53:21;;;;;;;6.15;2.90;;;15.80;99.90;;;;;;5013375;28;20026;-56
2023/09/19 01:55:49;;;;;;;6.63;2.78;;;15.90;99.90;;;;;;5014753;28;20087;-56
2023/09/19 01:58:39;;;;;;;6.47;2.67;;;15.90;99.90;;;;;;5021124;28;20534;-56
2023/09/19 02:01:05;;;;;;;6.68;2.40;;;15.80;99.90;;;;;;5013455;28;20033;-56
2023/09/19 02:03:33;;;;;;;4.07;2.30;;;15.90;99.90;;;;;;5013499;28;20029;-56
2023/09/19 02:05:58;;;;;;;8.30;2.13;;;15.90;99.90;;;;;;5027976;28;20120;-56
2023/09/19 02:08:24;;;;;;;4.70;2.60;;;15.90;99.90;;;;;;5019189;28;20101;-56
2023/09/19 02:10:50;;;;;;;2.60;1.90;;;15.90;99.90;;;;;;5018428;28;20096;-56
2023/09/19 02:13:20;;;;;;;5.15;2.45;;;15.90;99.90;;;;;;5026096;28;20032;-56
2023/09/19 02:15:46;;;;;;;5.78;2.67;;;15.90;99.90;;;;;;5025283;28;20113;-56
2023/09/19 02:18:12;;;;;;;6.35;2.92;;;15.90;99.90;;;;;;5020155;28;20038;-56
2023/09/19 02:20:39;;;;;;;5.60;2.67;;;15.90;99.90;;;;;;5019212;28;20021;-56
2023/09/19 02:23:05;;;;;;;3.72;2.67;;;15.90;99.90;;;;;;5028763;28;20028;-56
2023/09/19 02:25:31;;;;;;;6.13;2.90;;;15.90;99.90;;;;;;5018875;28;20287;-56
2023/09/19 02:27:58;;;;;;;4.85;2.70;;;15.90;99.90;;;;;;5029098;28;20029;-56
2023/09/19 02:30:27;;;;;;;4.55;2.60;;;15.90;99.90;;;;;;5022051;28;20027;-56
2023/09/19 02:32:52;;;;;;;5.43;2.85;;;15.90;99.90;;;;;;5017257;28;20399;-56
2023/09/19 02:35:19;;;;;;;7.40;2.83;;;15.90;99.90;;;;;;5021634;28;20026;-56
2023/09/19 02:37:45;;;;;;;3.78;2.72;;;15.80;99.90;;;;;;5016990;28;20040;-56
2023/09/19 02:40:25;;;;;;;4.72;3.28;;;15.80;99.90;;;;;;5018668;28;20403;-56
2023/09/19 02:42:54;;;;;;;5.30;2.53;;;15.80;99.90;;;;;;5015533;28;20064;-56
2023/09/19 02:45:20;;;;;;;5.15;2.83;;;15.80;99.90;;;;;;5018146;28;20022;-56
2023/09/19 02:47:47;;;;;;;3.95;3.05;;;15.80;99.90;;;;;;5016721;28;20026;-57
2023/09/19 02:50:15;;;;;;;5.95;2.85;;;15.80;99.90;;;;;;5020187;28;20053;-56
2023/09/19 02:52:46;;;;;;;5.40;2.60;;;15.70;99.90;;;;;;5038226;28;20505;-56
2023/09/19 02:55:14;;;;;;;8.65;2.63;;;15.80;99.90;;;;;;5022230;28;20052;-56
2023/09/19 02:57:42;;;;;;;5.38;2.80;;;15.70;99.90;;;;;;5017656;28;20025;-56
2023/09/19 03:00:12;;;;;;;5.75;3.10;;;15.70;99.90;;;;;;5021202;28;20025;-56
2023/09/19 03:02:39;;;;;;;3.78;2.70;;;15.70;99.90;;;;;;5016066;28;20025;-57
2023/09/19 03:05:05;;;;;;;6.72;3.13;;;15.70;99.90;;;;;;5020581;28;20026;-56
2023/09/19 03:07:31;;;;;;;4.13;2.63;;;15.70;99.90;;;;;;5022948;28;20034;-56
2023/09/19 03:09:56;;;;;;;5.55;2.65;;;15.60;99.90;;;;;;5022281;28;20124;-56
2023/09/19 03:12:22;;;;;;;6.45;2.97;;;15.60;99.90;;;;;;5022533;28;20022;-56
2023/09/19 03:14:48;;;;;;;5.07;2.72;;;15.60;99.90;;;;;;5020861;28;20025;-56
2023/09/19 03:17:14;;;;;;;8.05;3.15;;;15.60;99.90;;;;;;5018919;28;20111;-56
2023/09/19 03:19:40;;;;;;;4.85;2.92;;;15.60;99.90;;;;;;5019748;28;20033;-56
2023/09/19 03:22:05;;;;;;;5.53;2.67;;;15.60;99.90;;;;;;5021735;28;20025;-56
2023/09/19 03:24:33;;;;;;;6.18;2.90;;;15.60;99.90;;;;;;5018199;28;20097;-56
2023/09/19 03:26:59;;;;;;;5.32;2.88;;;15.60;99.90;;;;;;5021000;28;20032;-56
2023/09/19 03:29:25;;;;;;;10.27;2.90;;;15.50;99.90;;;;;;5020922;28;20668;-56
2023/09/19 03:31:51;;;;;;;9.40;3.45;;;15.50;99.90;;;;;;5024315;28;20124;-56
2023/09/19 03:34:17;;;;;;;8.68;2.70;;;15.50;99.90;;;;;;5018777;28;20481;-56
2023/09/19 03:36:42;;;;;;;4.68;2.80;;;15.40;99.90;;;;;;5016178;28;20036;-56
2023/09/19 03:39:08;;;;;;;6.30;3.30;;;15.40;99.90;;;;;;5016773;28;20018;-56
2023/09/19 03:41:36;;;;;;;8.77;3.17;;;15.40;99.90;;;;;;5017770;28;20080;-56
2023/09/19 03:44:02;;;;;;;8.60;3.03;;;15.40;99.90;;;;;;5035982;28;20530;-56
2023/09/19 03:46:28;;;;;;;6.53;3.20;;;15.40;99.90;;;;;;5023066;28;20081;-56
2023/09/19 03:48:54;;;;;;;5.25;3.42;;;15.40;99.90;;;;;;5019591;28;20025;-56
2023/09/19 03:51:20;;;;;;;7.85;3.50;;;15.30;99.90;;;;;;5035859;28;20789;-56
2023/09/19 03:53:46;;;;;;;7.60;4.05;;;15.30;99.90;;;;;;5023781;28;20036;-56
2023/09/19 03:56:11;;;;;;;5.72;3.00;;;15.30;99.90;;;;;;5019696;28;20641;-57
2023/09/19 03:58:40;;;;;;;5.30;3.15;;;15.20;99.90;;;;;;5021926;28;20025;-56
2023/09/19 04:01:06;;;;;;;7.68;4.57;;;15.20;99.90;;;;;;5019543;28;20051;-57
2023/09/19 04:03:46;;;;;;;5.57;3.42;;;15.20;99.90;;;;;;5018646;28;20028;-56
2023/09/19 04:06:15;;;;;;;6.32;2.80;;;15.20;99.90;;;;;;5021077;28;20029;-56
2023/09/19 04:08:41;;;;;;;6.97;3.17;;;15.20;99.90;;;;;;5019700;28;20556;-56
2023/09/19 04:11:07;;;;;;;5.30;2.75;;;15.10;99.90;;;;;;5017051;28;20042;-56
2023/09/19 04:13:32;;;;;;;3.95;3.10;;;15.10;99.90;;;;;;5021139;28;20049;-56
2023/09/19 04:15:58;;;;;;;9.15;4.25;;;15.10;99.90;;;;;;5020674;28;20037;-56
2023/09/19 04:18:23;;;;;;;5.47;3.72;;;15.10;99.90;;;;;;5020656;28;20037;-56
2023/09/19 04:20:50;;;;;;;6.45;4.40;;;15.10;99.90;;;;;;5019374;28;20033;-56
2023/09/19 04:23:16;;;;;;;13.90;4.85;;;15.20;99.90;;;;;;5019424;28;20507;-56
2023/09/19 04:25:42;;;;;;;7.50;4.57;;;15.20;99.90;;;;;;5022345;28;20387;-56
2023/09/19 04:28:10;;;;;;;11.45;4.30;;;15.20;99.90;;;;;;5019077;28;20014;-56
2023/09/19 04:30:35;;;;;;;9.27;4.63;;;15.30;99.90;;;;;;5019545;28;20075;-56
2023/09/19 04:33:01;;;;;;;8.32;3.90;;;15.30;99.90;;;;;;5018177;28;20041;-56
2023/09/19 04:35:29;;;;;;;12.02;4.65;;;15.30;99.90;;;;;;5022644;28;20187;-56
2023/09/19 04:37:54;;;;;;;14.00;4.82;;;15.30;99.90;;;;;;5024169;28;20057;-56
2023/09/19 04:40:20;;;;;;;8.30;4.35;;;15.30;99.90;;;;;;5022969;28;20111;-56
2023/09/19 04:42:56;;;;;;;8.15;4.32;;;15.40;99.90;;;;;;5020796;28;20428;-56
2023/09/19 04:45:24;;;;;;;10.13;4.70;;;15.40;99.90;;;;;;5017731;28;20041;-56
2023/09/19 04:47:50;;;;;;;6.22;4.25;;;15.50;99.90;;;;;;5023929;28;20017;-56
2023/09/19 04:50:16;;;;;;;14.38;4.80;;;15.50;99.90;;;;;;5018237;28;20036;-57
2023/09/19 04:52:44;;;;;;;7.65;4.40;;;15.50;99.90;;;;;;5017777;28;20030;-56
2023/09/19 04:55:19;;;;;;;6.95;4.57;;;15.50;99.90;;;;;;5021248;28;20112;-56
2023/09/19 04:57:47;;;;;;;8.05;4.25;;;15.50;99.90;;;;;;5018087;28;20108;-56
2023/09/19 05:00:15;;;;;;;7.65;3.92;;;15.50;99.90;;;;;;5022032;28;20025;-56
2023/09/19 05:02:42;;;;;;;10.25;4.30;;;15.50;99.90;;;;;;5022038;28;20479;-56
2023/09/19 05:05:08;;;;;;;8.50;4.32;;;15.50;99.90;;;;;;5021548;28;20510;-55
2023/09/19 05:07:34;;;;;;;8.80;4.25;;;15.50;99.90;;;;;;5018145;28;20049;-54
2023/09/19 05:10:00;;;;;;;7.05;4.35;;;15.40;99.90;;;;;;5019179;28;20033;-55
2023/09/19 05:12:29;;;;;;;9.57;4.43;;;15.40;99.90;;;;;;5016043;28;20045;-55
2023/09/19 05:14:55;;;;;;;8.18;5.40;;;15.40;99.90;;;;;;5018162;28;20028;-55
2023/09/19 05:17:21;;;;;;;10.07;5.15;;;15.40;99.90;;;;;;5019768;28;20108;-55
2023/09/19 05:19:46;;;;;;;9.50;5.30;;;15.30;99.90;;;;;;5018541;28;20093;-55
2023/09/19 05:22:12;;;;;;;10.88;5.32;;;15.30;99.90;;;;;;5024416;28;20117;-55
2023/09/19 05:24:39;;;;;;;12.35;6.28;;;15.30;99.90;;;;;;5017174;28;20036;-55
2023/09/19 05:27:07;;;;;;;11.18;5.68;;;15.40;99.90;;;;;;5019785;28;20499;-55
2023/09/19 05:29:33;;;;;;;13.55;6.35;;;15.40;99.90;;;;;;5016440;28;20038;-56
2023/09/19 05:31:59;;;;;;;9.18;5.65;;;15.40;99.90;;;;;;5027699;28;20109;-56
2023/09/19 05:34:28;;;;;;;13.25;6.55;;;15.40;99.90;;;;;;5020335;28;20445;-55
2023/09/19 05:36:54;;;;;;;14.65;6.53;;;15.40;99.90;;;;;;5022895;28;20083;-55
2023/09/19 05:39:20;;;;;;;15.40;6.60;;;15.40;99.90;;;;;;5018712;28;20494;-53
2023/09/19 05:41:47;;;;;;;11.77;6.75;;;15.40;99.90;;;;;;5017976;28;20097;-54
2023/09/19 05:44:14;;;;;;;10.35;6.15;;;15.50;99.90;;;;;;5020770;28;20035;-54
2023/09/19 05:46:39;;;;;;;13.68;6.90;;;15.50;99.90;;;;;;5031122;28;20415;-53
2023/09/19 05:49:05;;;;;;;9.95;6.10;;;15.50;99.90;;;;;;5024812;28;20030;-54
2023/09/19 05:51:31;;;;;;;13.23;7.45;;;15.50;99.90;;;;;;5016479;28;20034;-54
2023/09/19 05:53:57;;;;;;;16.33;6.93;;;15.40;99.90;;;;;;5033972;28;20022;-54
2023/09/19 05:56:23;;;;;;;21.58;6.75;;;15.40;99.90;;;;;;5020684;28;20025;-55
2023/09/19 05:58:53;;;;;;;18.05;6.75;;;15.40;99.90;;;;;;5024861;28;20479;-54
2023/09/19 06:01:18;;;;;;;13.00;6.82;;;15.40;99.90;;;;;;5022011;28;20124;-55
2023/09/19 06:03:44;;;;;;;7.20;6.05;;;15.40;99.90;;;;;;5018472;28;20120;-55
2023/09/19 06:06:09;;;;;;;11.93;6.20;;;15.30;99.90;;;;;;5016483;28;20026;-53
2023/09/19 06:08:35;;;;;;;13.45;5.68;;;15.30;99.90;;;;;;5019115;28;20511;-53
2023/09/19 06:11:01;;;;;;;14.18;5.88;;;15.30;99.90;;;;;;5019932;28;20349;-54
2023/09/19 06:13:29;;;;;;;10.13;5.32;;;15.30;99.90;;;;;;5017089;28;20034;-54
2023/09/19 06:15:58;;;;;;;11.18;5.57;;;15.30;99.90;;;;;;5020505;28;20033;-54
2023/09/19 06:18:26;;;;;;;9.80;4.93;;;15.30;99.90;;;;;;5020130;28;20041;-53
2023/09/19 06:20:51;;;;;;;15.80;6.13;;;15.30;99.90;;;;;;5019659;28;20076;-54
2023/09/19 06:23:17;;;;;;;12.52;5.18;;;15.30;99.90;;;;;;5025682;28;20029;-54
2023/09/19 06:25:43;;;;;;;18.23;5.63;;;15.30;99.90;;;;;;5023613;28;20022;-54
2023/09/19 06:28:12;;;;;;;12.13;4.95;;;15.20;99.90;;;;;;5025676;28;20036;-54
2023/09/19 06:30:41;;;;;;;9.63;5.07;;;15.30;99.90;;;;;;5025149;28;20493;-54
2023/09/19 06:33:07;;;;;;;16.92;5.57;;;15.40;99.90;;;;;;5024067;28;20026;-54
2023/09/19 06:35:34;;;;;;;15.80;4.65;;;15.40;99.90;;;;;;5020864;28;20021;-54
2023/09/19 06:38:03;;;;;;;15.93;5.63;;;15.40;99.90;;;;;;5027952;28;20503;-54
2023/09/19 06:40:28;;;;;;;11.70;5.78;;;15.50;99.90;;;;;;5024091;28;20025;-53
2023/09/19 06:42:55;;;;;;;9.70;5.65;;;15.50;99.90;;;;;;5018174;28;20092;-54
2023/09/19 06:45:21;;;;;;;11.35;5.28;;;15.50;99.90;;;;;;5020569;28;20164;-54
2023/09/19 06:47:51;;;;;;;15.23;5.60;;;15.60;99.90;;;;;;5033378;28;20113;-54
2023/09/19 06:50:22;;;;;;;9.70;5.60;;;15.60;99.90;;;;;;5022796;28;20017;-54
2023/09/19 06:52:50;;;;;;;8.95;4.93;;;15.70;99.90;;;;;;5020053;28;20017;-54
2023/09/19 06:55:16;;;;;;;12.07;5.90;;;15.80;99.90;;;;;;5022050;28;20494;-54
2023/09/19 06:57:44;;;;;;;12.07;4.88;;;15.90;99.90;;;;;;5039588;28;20034;-54
2023/09/19 07:00:24;;;;;;;15.63;5.55;;;15.90;99.90;;;;;;5022802;28;20483;-54
2023/09/19 07:03:11;;;;;;;11.38;5.25;;;15.90;99.90;;;;;;5024310;28;20021;-54
2023/09/19 07:05:38;;;;;;;11.52;5.20;;;15.90;99.90;;;;;;5022997;28;20317;-54
2023/09/19 07:08:05;;;;;;;13.27;6.20;;;16.00;99.90;;;;;;5023424;28;20502;-55
2023/09/19 07:10:32;;;;;;;12.10;5.95;;;15.90;99.90;;;;;;5019481;28;20383;-54
2023/09/19 07:13:11;;;;;;;14.85;5.85;;;16.00;99.90;;;;;;5027549;28;20052;-54
2023/09/19 07:15:41;;;;;;;11.48;5.15;;;16.00;99.90;;;;;;5024569;28;20026;-55
2023/09/19 07:18:10;;;;;;;11.77;4.85;;;16.00;99.90;;;;;;5020226;28;20053;-54
2023/09/19 07:20:36;;;;;;;10.85;5.47;;;16.00;99.90;;;;;;5022989;28;20030;-54
2023/09/19 07:23:02;;;;;;;11.98;5.72;;;16.10;99.90;;;;;;5024905;28;20093;-54
2023/09/19 07:25:28;;;;;;;14.70;5.82;;;16.10;99.90;;;;;;5024493;28;20045;-54
2023/09/19 07:28:00;;;;;;;9.75;4.82;;;16.10;99.90;;;;;;5020569;28;20097;-55
2023/09/19 07:30:26;;;;;;;15.90;5.13;;;16.20;99.90;;;;;;5025788;28;20033;-54
2023/09/19 07:32:52;;;;;;;13.90;5.70;;;16.20;99.90;;;;;;5023396;28;20503;-55
2023/09/19 07:35:19;;;;;;;14.13;5.35;;;16.30;99.90;;;;;;5023497;28;20334;-52
2023/09/19 07:37:49;;;;;;;12.35;5.20;;;16.30;99.90;;;;;;5027045;28;20393;-54
2023/09/19 07:40:15;;;;;;;17.63;5.30;;;16.40;99.90;;;;;;5026948;28;20032;-54
2023/09/19 07:42:41;;;;;;;10.95;5.63;;;16.50;99.90;;;;;;5022379;28;20025;-52
2023/09/19 07:45:08;;;;;;;13.65;5.15;;;16.50;99.90;;;;;;5024002;28;20048;-53
2023/09/19 07:47:36;;;;;;;16.27;5.70;;;16.60;99.90;;;;;;5016220;28;20116;-53
2023/09/19 07:50:02;;;;;;;10.18;4.55;;;16.70;99.90;;;;;;5023206;28;20029;-53
2023/09/19 07:52:28;;;;;;;13.20;5.40;;;16.80;99.90;;;;;;5020570;28;20026;-53
2023/09/19 07:54:54;;;;;;;12.70;5.15;;;16.80;99.90;;;;;;5024209;28;20025;-53
2023/09/19 07:57:20;;;;;;;16.58;5.53;;;16.90;99.90;;;;;;5024082;28;20047;-53
2023/09/19 07:59:45;;;;;;;17.70;5.47;;;17.10;99.90;;;;;;5024057;28;20084;-54
2023/09/19 08:02:15;;;;;;;11.90;4.50;;;17.10;99.90;;;;;;5021016;28;20045;-53
2023/09/19 08:04:48;;;;;;;12.57;4.10;;;17.10;99.90;;;;;;5023165;28;20025;-54
2023/09/19 08:07:15;;;;;;;12.38;4.80;;;17.10;99.90;;;;;;5023357;28;20044;-54
2023/09/19 08:09:41;;;;;;;11.60;4.50;;;17.20;99.90;;;;;;5018938;28;20036;-55
2023/09/19 08:12:11;;;;;;;13.77;4.60;;;17.30;99.90;;;;;;5024804;28;20427;-54
2023/09/19 08:14:37;;;;;;;12.35;4.60;;;17.60;99.90;;;;;;5022498;28;20034;-54
2023/09/19 08:17:05;;;;;;;14.77;4.03;;;18.20;99.90;;;;;;5041266;28;20030;-54
2023/09/19 08:19:31;;;;;;;9.52;3.63;;;18.30;99.90;;;;;;5015029;28;20542;-54
2023/09/19 08:22:01;;;;;;;9.32;3.40;;;19.30;99.90;;;;;;5021823;28;20056;-54
2023/09/19 08:24:30;;;;;;;8.95;3.13;;;20.40;99.90;;;;;;5024892;28;20028;-54
2023/09/19 08:26:56;;;;;;;14.23;3.58;;;21.60;97.10;;;;;;5022071;28;20499;-54
2023/09/19 08:29:27;;;;;;;8.30;2.72;;;22.80;93.90;;;;;;5022320;28;20083;-55
2023/09/19 08:31:56;;;;;;;11.02;3.35;;;23.60;92.00;;;;;;5018967;28;20013;-54
2023/09/19 08:34:26;;;;;;;10.50;3.10;;;23.60;89.30;;;;;;5017649;28;20014;-55
2023/09/19 08:36:56;;;;;;;10.10;3.22;;;23.60;88.80;;;;;;5030520;28;20235;-55
2023/09/19 08:39:22;;;;;;;;;;;23.70;87.40;;;;;;5021287;28;20049;-55
2023/09/19 08:41:47;;;;;;;9.90;2.28;;;23.30;88.00;;;;;;5023851;28;19908;-54
2023/09/19 08:44:13;;;;;;;11.43;2.72;;;23.10;87.10;;;;;;5024581;28;20065;-54
2023/09/19 08:46:41;;;;;;;11.30;2.80;;;23.00;87.00;;;;;;5023351;28;20453;-54
2023/09/19 08:49:22;;;;;;;11.55;3.22;;;22.90;88.10;;;;;;5021807;28;20429;-55
2023/09/19 08:51:53;;;;;;;7.22;2.60;;;23.00;86.80;;;;;;5030810;28;20052;-55
2023/09/19 08:54:29;;;;;;;9.63;2.78;;;23.20;85.70;;;;;;5032457;28;20104;-55
2023/09/19 08:56:56;;;;;;;9.60;2.53;;;22.60;87.20;;;;;;5033692;28;20021;-54
2023/09/19 08:59:26;;;;;;;10.45;2.88;;;22.10;88.00;;;;;;5031775;28;20108;-55
2023/09/19 09:01:53;;;;;;;9.50;3.30;;;21.80;88.70;;;;;;5028731;28;20478;-54
2023/09/19 09:04:20;;;;;;;10.13;2.47;;;21.60;88.60;;;;;;5033419;28;20096;-54
2023/09/19 09:06:48;;;;;;;11.80;2.70;;;21.50;89.50;;;;;;5048402;28;20088;-54
2023/09/19 09:09:17;;;;;;;12.30;3.10;;;21.80;89.30;;;;;;5028720;28;20026;-54
2023/09/19 09:11:42;;;;;;;7.45;2.35;;;21.60;89.20;;;;;;5030206;28;20033;-54
2023/09/19 09:14:08;;;;;;;8.55;2.83;;;22.10;90.00;;;;;;5032752;28;20033;-54
2023/09/19 09:16:34;;;;;;;6.28;2.20;;;23.00;87.90;;;;;;5029971;28;20040;-55
2023/09/19 09:19:00;;;;;;;7.15;2.45;;;23.50;87.00;;;;;;5036458;28;20482;-54
2023/09/19 09:21:26;;;;;;;8.88;2.35;;;23.90;84.60;;;;;;5027951;28;20017;-54
2023/09/19 09:23:53;;;;;;;9.40;2.58;;;23.70;83.30;;;;;;5034172;28;20078;-55
2023/09/19 09:26:38;;;;;;;8.35;2.42;;;23.60;84.50;;;;;;5031222;28;20032;-55
2023/09/19 09:29:04;;;;;;;7.72;2.95;;;23.50;84.10;;;;;;5033344;28;20053;-55
2023/09/19 09:31:29;;;;;;;7.47;3.30;;;23.80;82.80;;;;;;5026891;28;20053;-55
2023/09/19 09:33:55;;;;;;;8.35;2.58;;;24.40;81.70;;;;;;5030685;28;20063;-55
2023/09/19 09:36:36;;;;;;;5.45;2.67;;;24.40;80.10;;;;;;5029614;28;20175;-54
2023/09/19 09:39:15;;;;;;;10.25;2.65;;;23.70;81.90;;;;;;5031631;28;20107;-55
2023/09/19 09:41:42;;;;;;;8.00;2.38;;;23.80;83.20;;;;;;5030637;28;20495;-55
2023/09/19 09:44:18;;;;;;;9.70;2.67;;;24.10;81.30;;;;;;5017077;28;20087;-54
2023/09/19 09:49:32;;;;;;;12.07;2.72;;;25.00;80.30;;;;;;5021695;28;20018;-55
2023/09/19 09:52:14;;;;;;;7.00;2.47;;;25.40;79.90;;;;;;5025011;28;20021;-55
2023/09/19 09:54:59;;;;;;;4.97;1.80;;;25.70;78.40;;;;;;5022868;28;20242;-54
2023/09/19 09:57:25;;;;;;;9.75;2.47;;;25.00;76.80;;;;;;5030766;28;20543;-54
2023/09/19 10:00:16;;;;;;;7.35;2.70;;;23.70;79.60;;;;;;5028113;28;20029;-55
2023/09/19 10:02:44;;;;;;;9.75;2.60;;;22.80;82.00;;;;;;5026302;28;20132;-55
2023/09/19 10:05:20;;;;;;;8.95;2.80;;;22.60;83.40;;;;;;5027723;28;20021;-54
2023/09/19 10:07:52;;;;;;;9.05;2.97;;;23.00;82.60;;;;;;5028328;28;20025;-55
2023/09/19 10:13:12;;;;;;;;;;;23.50;79.70;;;;;;5025009;28;20038;-54
2023/09/19 10:15:40;;;;;;;9.00;2.90;;;22.50;81.70;;;;;;5027840;28;19909;-55
2023/09/19 10:18:10;;;;;;;6.15;2.60;;;23.00;81.50;;;;;;5027446;28;20025;-54
2023/09/19 10:20:38;;;;;;;11.85;2.45;;;23.20;81.90;;;;;;5028734;28;20022;-54
2023/09/19 10:23:13;;;;;;;12.27;2.50;;;23.80;82.60;;;;;;5029500;28;20033;-54
2023/09/19 10:25:40;;;;;;;8.52;2.60;;;24.40;79.50;;;;;;5029032;28;20108;-55
2023/09/19 10:28:11;;;;;;;9.05;2.60;;;24.20;79.60;;;;;;5021507;28;20040;-54
2023/09/19 10:30:47;;;;;;;;;;;24.60;78.50;;;;;;5025178;28;20041;-54
2023/09/19 10:33:13;;;;;;;7.63;2.78;;;24.30;77.90;;;;;;5023113;28;19961;-55
2023/09/19 10:35:42;;;;;;;9.15;2.42;;;24.00;78.90;;;;;;5023998;28;20022;-52
2023/09/19 10:38:10;;;;;;;7.38;2.70;;;23.50;79.00;;;;;;5024486;28;20185;-53
2023/09/19 10:40:40;;;;;;;7.50;2.20;;;23.70;79.10;;;;;;5028509;28;20039;-53
2023/09/19 10:43:06;;;;;;;9.43;2.50;;;24.10;80.10;;;;;;5023230;28;20171;-53
2023/09/19 10:45:33;;;;;;;9.20;2.78;;;24.60;78.10;;;;;;5030285;28;20144;-53
2023/09/19 10:48:03;;;;;;;8.35;2.22;;;24.10;80.00;;;;;;5029816;28;20487;-54
2023/09/19 10:50:50;;;;;;;5.70;2.13;;;23.90;78.80;;;;;;5028322;28;20059;-54
2023/09/19 10:53:17;;;;;;;4.65;2.17;;;23.50;79.80;;;;;;5031147;28;20771;-54
2023/09/19 10:55:53;;;;;;;6.55;2.38;;;23.50;80.80;;;;;;5022915;28;20112;-54
2023/09/19 10:58:34;;;;;;;7.53;2.50;;;23.60;81.00;;;;;;5030518;28;20053;-54
2023/09/19 11:01:15;;;;;;;;;;;24.00;78.60;;;;;;5029766;28;20033;-54
2023/09/19 11:03:44;;;;;;;7.55;2.38;;;23.90;78.60;;;;;;5045213;28;19912;-54
2023/09/19 11:06:18;;;;;;;9.77;2.88;;;23.50;78.80;;;;;;5029011;28;20025;-54
2023/09/19 11:09:15;;;;;;;10.60;2.65;;;23.40;78.00;;;;;;5026968;28;20014;-54
2023/09/19 11:11:46;;;;;;;8.13;2.38;;;23.10;79.20;;;;;;5030169;28;20022;-54
2023/09/19 11:14:23;;;;;;;;;;;23.10;81.20;;;;;;5029401;28;20413;-54
2023/09/19 11:17:07;;;;;;;6.47;2.85;;;23.10;80.80;;;;;;5028402;28;20329;-54
2023/09/19 11:22:51;;;;;;;12.05;2.50;;;22.40;81.80;;;;;;5025146;28;20022;-54
2023/09/19 11:25:39;;;;;;;8.02;2.20;;;22.60;81.10;;;;;;5024972;28;20024;-53
2023/09/19 11:30:33;;;;;;;5.70;2.55;;;22.20;81.70;;;;;;5030313;28;20036;-54
2023/09/19 11:33:37;;;;;;;8.00;2.72;;;22.40;82.70;;;;;;5022605;28;20029;-54
2023/09/19 11:36:15;;;;;;;8.93;2.75;;;22.80;80.10;;;;;;5028778;28;20513;-54
2023/09/19 11:38:49;;;;;;;5.88;2.25;;;23.40;81.00;;;;;;5023245;28;20191;-54
2023/09/19 11:41:25;;;;;;;11.15;2.58;;;23.70;77.50;;;;;;5030917;28;20021;-54
2023/09/19 11:43:54;;;;;;;12.30;3.33;;;23.30;78.60;;;;;;5028620;28;20021;-54
2023/09/19 11:46:23;;;;;;;7.15;2.67;;;22.50;79.90;;;;;;5030066;28;20485;-55
2023/09/19 11:48:50;;;;;;;9.75;2.88;;;22.60;81.20;;;;;;5027727;28;20021;-54
2023/09/19 11:51:26;;;;;;;9.57;2.88;;;22.60;80.20;;;;;;5025939;28;20531;-54
2023/09/19 11:53:53;;;;;;;9.07;2.63;;;22.30;80.30;;;;;;5028505;28;20091;-54
2023/09/19 11:56:25;;;;;;;12.23;3.05;;;22.20;81.70;;;;;;5029587;28;20316;-54
2023/09/19 11:58:56;;;;;;;8.32;2.60;;;22.40;82.10;;;;;;5029111;28;20044;-54
2023/09/19 12:01:24;;;;;;;;;;;22.40;81.60;;;;;;5029425;28;20040;-54
2023/09/19 12:03:54;;;;;;;8.55;2.90;;;22.20;80.70;;;;;;5029758;28;19905;-54
2023/09/19 12:06:21;;;;;;;6.05;2.67;;;22.10;81.20;;;;;;5023129;28;20402;-53
2023/09/19 12:08:48;;;;;;;8.77;2.60;;;22.20;82.50;;;;;;5024058;28;20053;-54
2023/09/19 12:11:19;;;;;;;9.27;2.63;;;22.20;82.00;;;;;;5042046;28;20028;-54
2023/09/19 12:13:46;;;;;;;7.15;2.22;;;22.30;81.70;;;;;;5030123;28;20217;-54
2023/09/19 12:16:17;;;;;;;7.55;2.65;;;22.40;80.10;;;;;;5029855;28;20399;-54
2023/09/19 12:18:44;;;;;;;;;;;22.30;80.20;;;;;;5030364;28;20084;-54
2023/09/19 12:21:36;;;;;;;7.22;2.83;;;22.10;80.40;;;;;;5030069;28;20015;-54
2023/09/19 12:24:13;;;;;;;6.78;2.80;;;22.10;82.30;;;;;;5029890;28;20081;-54
2023/09/19 12:26:43;;;;;;;5.88;2.58;;;22.20;81.40;;;;;;5030577;28;20068;-55
2023/09/19 12:29:13;;;;;;;;;;;22.30;80.50;;;;;;5023173;28;20021;-54
2023/09/19 12:31:53;;;;;;;10.60;2.88;;;22.20;80.60;;;;;;5029619;28;19951;-54
2023/09/19 12:34:27;;;;;;;12.63;3.80;;;22.10;82.00;;;;;;5023551;28;20108;-54
2023/09/19 12:37:06;;;;;;;8.80;2.83;;;22.30;79.80;;;;;;5026269;28;20022;-54
2023/09/19 12:39:31;;;;;;;8.15;3.08;;;22.30;80.40;;;;;;5028947;28;20037;-54
2023/09/19 12:41:57;;;;;;;10.05;2.88;;;22.30;80.30;;;;;;5022643;28;20084;-54
2023/09/19 12:44:24;;;;;;;8.98;2.88;;;22.40;79.80;;;;;;5025352;28;20040;-54
2023/09/19 12:46:50;;;;;;;7.32;3.50;;;22.40;78.50;;;;;;5016665;28;20029;-54
2023/09/19 12:49:19;;;;;;;9.30;3.03;;;22.20;80.40;;;;;;5019519;28;20022;-55
2023/09/19 12:51:49;;;;;;;8.57;2.65;;;22.30;80.40;;;;;;5021221;28;20026;-56
2023/09/19 12:54:16;;;;;;;5.88;2.78;;;22.20;81.00;;;;;;5029646;28;20524;-54
2023/09/19 12:56:44;;;;;;;11.20;3.30;;;22.40;80.70;;;;;;5021945;28;20030;-54
2023/09/19 12:59:13;;;;;;;8.05;3.70;;;22.40;81.10;;;;;;5028605;28;20056;-55
2023/09/19 13:01:46;;;;;;;9.13;3.13;;;22.40;79.50;;;;;;5027653;28;20025;-55
2023/09/19 13:04:18;;;;;;;11.88;3.10;;;22.50;81.20;;;;;;5015781;28;20494;-55
2023/09/19 13:06:44;;;;;;;8.23;2.80;;;22.30;80.30;;;;;;5020831;28;20025;-54
2023/09/19 13:09:10;;;;;;;6.82;3.03;;;22.10;80.00;;;;;;5025852;28;20030;-55